Belleoram, Canada
Current Conditions -  °F | °C
As of 10:00 AM on Thursday 18 Dec 2014 (Local Time) from LFVP Reporting Station
Drizzle Drizzle  
Wind Chill: 31°   Ceiling: 400
Heat Index: 41°   Visibility: 1.1mi
Dew Point: 41°   Wind: 22mph
Humidity: 100%   Direction: 110°ESE
Pressure: 29.83"   Gusts: NA
Location:  47.52°N, 55.45°W
Report Text: LFVP 181300Z 11019KT 1800 DZ BR OVC004 05/05 Q1010 NOSIG
Loading
Personal Weather Stations






























Interactive Weather Map New forecast layout! Learn more

10-Day Weather Forecast

Advertisements
Track Severe Weather on mobile